createdAt,value
2018-04-26T00:04:58.667Z,59.40
2018-04-26T00:07:27.560Z,60.90
2018-04-26T00:09:55.231Z,61.20
2018-04-26T00:12:22.777Z,61.10
2018-04-26T00:14:50.276Z,61.70
2018-04-26T00:17:17.774Z,61.70
2018-04-26T00:19:45.291Z,61.90
2018-04-26T00:22:12.805Z,61.90
2018-04-26T00:24:40.451Z,62.20
2018-04-26T00:27:07.909Z,62.50
2018-04-26T00:29:35.489Z,62.40
2018-04-26T00:32:03.137Z,62.70
2018-04-26T00:34:30.615Z,62.90
2018-04-26T00:36:58.492Z,63.20
2018-04-26T00:39:44.788Z,62.90
2018-04-26T00:42:12.244Z,63.30
2018-04-26T00:44:39.805Z,63.30
2018-04-26T00:47:07.284Z,63.20
2018-04-26T00:49:35.850Z,62.80
2018-04-26T00:52:03.529Z,63.30
2018-04-26T00:54:31.056Z,63.60
2018-04-26T00:56:58.655Z,64.60
2018-04-26T00:59:26.881Z,64.30
2018-04-26T01:01:54.397Z,64.30
2018-04-26T01:04:22.031Z,64.60
2018-04-26T01:06:49.613Z,64.70
2018-04-26T01:09:17.946Z,66.70
2018-04-26T01:11:45.624Z,66.70
2018-04-26T01:14:13.222Z,66.70
2018-04-26T01:16:40.850Z,66.80
2018-04-26T01:19:08.325Z,65.70
2018-04-26T01:21:35.901Z,65.50
2018-04-26T01:24:03.700Z,65.10
2018-04-26T01:26:31.234Z,65.00
2018-04-26T01:28:59.020Z,64.80
2018-04-26T01:31:26.664Z,64.80
2018-04-26T01:33:54.319Z,64.60
2018-04-26T01:36:33.899Z,64.50
2018-04-26T01:39:02.322Z,64.70
2018-04-26T01:41:29.836Z,64.40
2018-04-26T01:43:57.467Z,64.20
2018-04-26T01:46:24.929Z,64.20
2018-04-26T01:48:52.635Z,64.20
2018-04-26T01:51:21.006Z,64.50
2018-04-26T01:53:49.255Z,64.50
2018-04-26T01:56:16.773Z,64.30
2018-04-26T01:58:45.035Z,64.60
2018-04-26T02:01:12.680Z,64.60
2018-04-26T02:03:41.094Z,64.70
2018-04-26T02:06:08.720Z,64.70
2018-04-26T02:08:37.129Z,65.10
2018-04-26T02:11:04.774Z,65.10
2018-04-26T02:13:32.540Z,65.40
2018-04-26T02:16:00.146Z,65.40
2018-04-26T02:18:27.861Z,65.40
2018-04-26T02:20:55.569Z,65.90
2018-04-26T02:23:24.257Z,65.90
2018-04-26T02:25:51.930Z,66.20
2018-04-26T02:28:19.728Z,66.30
2018-04-26T02:30:47.294Z,67.30
2018-04-26T02:33:14.872Z,66.70
2018-04-26T02:35:42.387Z,66.80
2018-04-26T02:38:10.769Z,67.40
2018-04-26T02:40:38.368Z,67.40
2018-04-26T02:43:06.018Z,68.50
2018-04-26T02:45:33.656Z,67.80
2018-04-26T02:48:01.191Z,67.80
2018-04-26T02:50:29.718Z,68.50
2018-04-26T02:52:57.253Z,68.50
2018-04-26T02:55:24.761Z,68.50
2018-04-26T02:57:53.160Z,69.40
2018-04-26T03:00:21.782Z,68.90
2018-04-26T03:02:50.211Z,68.50
2018-04-26T03:05:17.814Z,68.50
2018-04-26T03:07:45.533Z,69.30
2018-04-26T03:10:13.018Z,68.90
2018-04-26T03:12:40.586Z,68.80
2018-04-26T03:15:08.356Z,69.00
2018-04-26T03:17:36.042Z,69.20
2018-04-26T03:20:03.682Z,69.40
2018-04-26T03:22:31.191Z,69.40
2018-04-26T03:24:58.698Z,69.50
2018-04-26T03:27:26.204Z,69.60
2018-04-26T03:29:53.834Z,69.70
2018-04-26T03:32:21.393Z,69.90
2018-04-26T03:34:49.020Z,70.00
2018-04-26T03:37:16.686Z,70.30
2018-04-26T03:39:44.321Z,70.30
2018-04-26T03:42:12.822Z,70.70
2018-04-26T03:44:40.353Z,70.70
2018-04-26T03:47:08.709Z,70.70
2018-04-26T03:49:36.362Z,70.70
2018-04-26T03:52:03.911Z,71.00
2018-04-26T03:54:31.498Z,71.30
2018-04-26T03:56:59.787Z,71.80
2018-04-26T03:59:28.228Z,71.40
2018-04-26T04:02:08.440Z,71.60
2018-04-26T04:04:47.777Z,71.60
2018-04-26T04:07:15.489Z,71.30
2018-04-26T04:09:43.012Z,71.50
2018-04-26T04:12:10.652Z,71.20
2018-04-26T04:14:38.266Z,70.60
2018-04-26T04:17:06.561Z,71.20
2018-04-26T04:19:35.052Z,71.20
2018-04-26T04:22:02.746Z,71.20
2018-04-26T04:24:30.639Z,71.10
2018-04-26T04:26:58.905Z,71.10
2018-04-26T04:29:26.414Z,71.20
2018-04-26T04:31:53.899Z,70.70
2018-04-26T04:34:21.637Z,70.60
2018-04-26T04:36:49.315Z,70.80
2018-04-26T04:39:16.860Z,70.60
2018-04-26T04:41:44.452Z,70.90
2018-04-26T04:44:11.926Z,70.90
2018-04-26T04:46:39.441Z,70.70
2018-04-26T04:49:10.104Z,70.90
2018-04-26T04:51:37.691Z,70.80
2018-04-26T04:54:06.125Z,69.80
2018-04-26T04:56:33.792Z,69.80
2018-04-26T04:59:01.298Z,69.50
2018-04-26T05:01:29.555Z,69.50
2018-04-26T05:03:57.201Z,69.40
2018-04-26T05:06:24.694Z,69.40
2018-04-26T05:08:52.199Z,69.80
2018-04-26T05:11:19.850Z,68.60
2018-04-26T05:13:47.375Z,68.70
2018-04-26T05:16:14.880Z,68.30
2018-04-26T05:18:42.391Z,68.00
2018-04-26T05:21:10.054Z,68.10
2018-04-26T05:23:37.528Z,67.90
2018-04-26T05:26:05.042Z,67.90
2018-04-26T05:28:33.305Z,67.70
2018-04-26T05:31:00.811Z,67.70
2018-04-26T05:33:28.310Z,67.70
2018-04-26T05:35:55.975Z,67.60
2018-04-26T05:38:23.527Z,68.10
2018-04-26T05:40:51.239Z,68.10
2018-04-26T05:43:18.735Z,68.10
2018-04-26T05:45:46.217Z,68.30
2018-04-26T05:48:14.509Z,69.00
2018-04-26T05:50:43.013Z,69.10
2018-04-26T05:53:10.627Z,69.10
2018-04-26T05:55:38.285Z,69.20
2018-04-26T05:58:05.865Z,69.50
2018-04-26T06:00:34.180Z,69.80
2018-04-26T06:03:01.692Z,69.80
2018-04-26T06:05:29.391Z,69.80
2018-04-26T06:07:56.922Z,69.80
2018-04-26T06:10:24.462Z,69.50
2018-04-26T06:12:52.859Z,69.50
2018-04-26T06:15:20.503Z,69.40
2018-04-26T06:17:48.774Z,70.40
2018-04-26T06:20:17.007Z,70.70
2018-04-26T06:22:44.537Z,70.60
2018-04-26T06:25:12.103Z,70.30
2018-04-26T06:27:39.652Z,68.90
2018-04-26T06:30:07.139Z,69.50
2018-04-26T06:32:34.905Z,68.70
2018-04-26T06:35:02.424Z,67.50
2018-04-26T06:37:30.056Z,65.10
2018-04-26T06:39:58.385Z,62.40
2018-04-26T06:42:25.884Z,62.30
2018-04-26T06:44:54.296Z,61.20
2018-04-26T06:47:21.761Z,61.70
2018-04-26T06:49:49.282Z,61.40
2018-04-26T06:52:17.606Z,59.20
2018-04-26T06:54:45.122Z,59.10
2018-04-26T06:57:12.806Z,58.40
2018-04-26T06:59:40.311Z,58.80
2018-04-26T07:02:07.924Z,58.50
2018-04-26T07:04:35.395Z,58.90
2018-04-26T07:07:02.893Z,58.80
2018-04-26T07:09:30.357Z,57.90
2018-04-26T07:11:58.643Z,55.80
2018-04-26T07:14:26.120Z,55.70
2018-04-26T07:16:54.332Z,55.00
2018-04-26T07:19:21.810Z,54.90
2018-04-26T07:21:49.312Z,55.10
2018-04-26T07:24:16.866Z,53.40
2018-04-26T07:26:45.376Z,50.90
2018-04-26T07:29:13.017Z,48.70
2018-04-26T07:31:40.669Z,46.70
2018-04-26T07:34:08.141Z,46.30
2018-04-26T07:36:35.815Z,45.90
2018-04-26T07:39:03.371Z,46.60
2018-04-26T07:41:30.915Z,47.00
2018-04-26T07:43:58.421Z,47.40
2018-04-26T07:46:26.692Z,49.00
2018-04-26T07:48:54.960Z,50.20
2018-04-26T07:51:22.722Z,50.10
2018-04-26T07:53:50.251Z,50.80
2018-04-26T07:56:17.902Z,50.50
2018-04-26T07:58:45.389Z,51.00
2018-04-26T08:01:12.984Z,51.00
2018-04-26T08:03:40.664Z,50.50
2018-04-26T08:06:08.437Z,50.40
2018-04-26T08:08:36.249Z,50.60
2018-04-26T08:11:04.682Z,52.20
2018-04-26T08:13:32.356Z,52.20
2018-04-26T08:15:59.852Z,51.80
2018-04-26T08:18:28.143Z,49.20
2018-04-26T08:20:55.891Z,49.10
2018-04-26T08:23:24.173Z,48.70
2018-04-26T08:25:51.809Z,48.70
2018-04-26T08:28:19.314Z,49.00
2018-04-26T08:30:46.923Z,49.50
2018-04-26T08:33:14.608Z,50.10
2018-04-26T08:35:42.172Z,51.20
2018-04-26T08:38:09.946Z,51.60
2018-04-26T08:40:37.815Z,49.50
2018-04-26T08:43:05.385Z,44.60
2018-04-26T08:45:33.041Z,42.30
2018-04-26T08:48:00.547Z,40.10
2018-04-26T08:50:28.250Z,39.30
2018-04-26T08:52:55.880Z,38.10
2018-04-26T08:55:24.237Z,38.60
2018-04-26T09:00:44.668Z,40.80
2018-04-26T09:03:13.353Z,46.50
2018-04-26T09:05:41.604Z,49.60
2018-04-26T09:08:09.173Z,49.60
2018-04-26T09:10:37.494Z,52.20
2018-04-26T09:13:05.151Z,52.10
2018-04-26T09:15:32.753Z,51.90
2018-04-26T09:18:00.362Z,53.80
2018-04-26T09:20:27.843Z,50.80
2018-04-26T09:22:55.527Z,47.80
2018-04-26T09:25:23.006Z,47.10
2018-04-26T09:30:44.528Z,38.70
2018-04-26T09:33:12.796Z,37.20
2018-04-26T09:35:41.023Z,36.90
2018-04-26T09:38:08.565Z,36.80
2018-04-26T09:40:36.356Z,38.20
2018-04-26T09:43:04.103Z,40.00
2018-04-26T09:45:31.635Z,39.60
2018-04-26T09:47:59.228Z,39.40
2018-04-26T09:50:26.855Z,38.70
2018-04-26T09:52:54.759Z,36.50
2018-04-26T09:55:22.391Z,36.50
2018-04-26T09:57:50.044Z,37.60
2018-04-26T10:00:23.325Z,38.70
2018-04-26T10:02:52.037Z,39.00
2018-04-26T10:05:19.509Z,40.60
2018-04-26T10:07:47.049Z,41.60
2018-04-26T10:10:14.628Z,42.40
2018-04-26T10:12:42.313Z,44.00
2018-04-26T10:15:09.889Z,42.70
2018-04-26T10:17:37.382Z,39.00
2018-04-26T10:20:04.883Z,37.10
2018-04-26T10:22:32.429Z,36.30
2018-04-26T10:25:00.895Z,37.10
2018-04-26T10:27:28.594Z,37.70
2018-04-26T10:29:56.924Z,35.80
2018-04-26T10:32:24.509Z,35.70
2018-04-26T10:34:52.880Z,35.90
2018-04-26T10:37:20.685Z,35.90
2018-04-26T10:39:48.234Z,34.40
2018-04-26T10:42:16.471Z,31.60
2018-04-26T10:44:44.040Z,31.50
2018-04-26T10:47:11.649Z,30.10
2018-04-26T10:49:39.154Z,28.40
2018-04-26T10:52:06.772Z,28.70
2018-04-26T10:54:34.313Z,29.00
2018-04-26T10:57:01.864Z,29.40
2018-04-26T10:59:29.449Z,30.00
2018-04-26T11:01:56.938Z,31.20
2018-04-26T11:04:24.474Z,32.70
2018-04-26T11:06:52.074Z,33.90
2018-04-26T11:09:19.882Z,34.70
2018-04-26T11:11:47.571Z,35.40
2018-04-26T11:14:15.348Z,35.60
2018-04-26T11:16:43.093Z,36.30
2018-04-26T11:19:10.686Z,37.20
2018-04-26T11:21:39.190Z,36.50
2018-04-26T11:24:06.757Z,36.50
2018-04-26T11:26:34.278Z,36.30
2018-04-26T11:29:02.590Z,35.30
2018-04-26T11:31:30.104Z,36.00
2018-04-26T11:33:57.659Z,34.60
2018-04-26T11:36:25.316Z,35.90
2018-04-26T11:38:52.958Z,36.90
2018-04-26T11:41:20.894Z,37.20
2018-04-26T11:43:51.774Z,34.90
2018-04-26T11:46:19.342Z,34.90
2018-04-26T11:48:47.802Z,33.30
2018-04-26T11:51:15.446Z,33.20
2018-04-26T11:53:43.966Z,33.50
2018-04-26T11:56:11.856Z,32.90
2018-04-26T11:58:40.643Z,33.70
2018-04-26T12:01:09.294Z,33.70
2018-04-26T12:03:39.037Z,34.90
2018-04-26T12:06:06.523Z,34.70
2018-04-26T12:08:34.497Z,35.10
2018-04-26T12:11:02.169Z,36.00
2018-04-26T12:13:29.744Z,36.40
2018-04-26T12:15:57.222Z,36.30
2018-04-26T12:18:25.695Z,35.60
2018-04-26T12:20:54.221Z,34.60
2018-04-26T12:23:21.967Z,34.60
2018-04-26T12:25:49.593Z,34.80
2018-04-26T12:28:17.974Z,32.70
2018-04-26T12:30:45.471Z,32.70
2018-04-26T12:33:13.215Z,33.20
2018-04-26T12:35:41.000Z,33.40
2018-04-26T12:38:08.502Z,33.40
2018-04-26T12:40:35.973Z,33.90
2018-04-26T12:43:04.562Z,34.10
2018-04-26T12:45:32.903Z,34.00
2018-04-26T12:48:00.526Z,33.90
2018-04-26T12:50:28.410Z,34.60
2018-04-26T12:52:55.896Z,35.50
2018-04-26T12:55:23.437Z,35.30
2018-04-26T12:57:51.054Z,35.70
2018-04-26T13:00:18.829Z,36.20
2018-04-26T13:02:46.446Z,35.40
2018-04-26T13:05:14.701Z,36.10
2018-04-26T13:07:42.401Z,36.10
2018-04-26T13:10:10.753Z,33.80
2018-04-26T13:12:39.279Z,32.60
2018-04-26T13:15:06.951Z,33.00
2018-04-26T13:17:34.703Z,33.80
2018-04-26T13:20:02.421Z,32.80
2018-04-26T13:22:30.696Z,30.80
2018-04-26T13:24:59.308Z,31.60
2018-04-26T13:27:26.837Z,31.40
2018-04-26T13:29:55.257Z,32.30
2018-04-26T13:32:22.667Z,32.30
2018-04-26T13:34:50.913Z,33.30
2018-04-26T13:37:18.450Z,33.20
2018-04-26T13:39:45.993Z,34.30
2018-04-26T13:42:14.196Z,36.70
2018-04-26T13:44:41.717Z,36.60
2018-04-26T13:47:09.269Z,40.90
2018-04-26T13:49:36.854Z,43.30
2018-04-26T13:52:04.576Z,45.10
2018-04-26T13:54:32.408Z,45.90
2018-04-26T13:57:00.000Z,48.00
2018-04-26T13:59:28.272Z,50.90
2018-04-26T14:01:55.767Z,51.00
2018-04-26T14:04:25.137Z,52.10
2018-04-26T14:06:52.827Z,53.10
2018-04-26T14:09:20.481Z,52.90
2018-04-26T14:11:47.987Z,52.30
2018-04-26T14:14:15.613Z,49.50
2018-04-26T14:16:43.363Z,48.70
2018-04-26T14:19:10.960Z,48.10
2018-04-26T14:21:38.710Z,46.90
2018-04-26T14:24:06.216Z,47.20
2018-04-26T14:26:34.565Z,46.50
2018-04-26T14:29:02.058Z,46.50
2018-04-26T14:31:29.770Z,46.20
2018-04-26T14:33:57.272Z,45.80
2018-04-26T14:36:25.017Z,43.80
2018-04-26T14:38:53.687Z,40.20
2018-04-26T14:41:21.557Z,40.20
2018-04-26T14:43:49.160Z,39.90
2018-04-26T14:46:16.914Z,38.90
2018-04-26T14:48:44.661Z,38.60
2018-04-26T14:51:13.074Z,38.30
2018-04-26T14:53:40.582Z,38.30
2018-04-26T14:56:09.416Z,38.80
2018-04-26T14:58:36.936Z,38.80
2018-04-26T15:01:05.570Z,36.60
2018-04-26T15:03:33.043Z,36.60
2018-04-26T15:06:00.608Z,37.60
2018-04-26T15:08:28.131Z,38.00
2018-04-26T15:10:55.743Z,38.60
2018-04-26T15:13:24.257Z,38.50
2018-04-26T15:15:51.722Z,38.40
2018-04-26T15:18:19.469Z,36.70
2018-04-26T15:20:46.980Z,36.00
2018-04-26T15:23:14.497Z,36.30
2018-04-26T15:25:42.151Z,36.30
2018-04-26T15:28:09.745Z,37.20
2018-04-26T15:30:37.641Z,37.50
2018-04-26T15:33:05.985Z,37.70
2018-04-26T15:35:33.502Z,37.70
2018-04-26T15:38:01.205Z,37.10
2018-04-26T15:40:28.781Z,36.80
2018-04-26T15:42:56.333Z,37.00
2018-04-26T15:45:24.283Z,35.40
2018-04-26T15:47:51.840Z,35.50
2018-04-26T15:53:31.177Z,35.70
2018-04-26T15:56:23.710Z,35.70
2018-04-26T16:02:22.437Z,35.70
2018-04-26T16:05:01.967Z,36.30
2018-04-26T16:07:49.169Z,36.50
2018-04-26T16:10:28.673Z,37.00
2018-04-26T16:13:13.976Z,37.60
2018-04-26T16:15:59.382Z,36.80
2018-04-26T16:18:42.805Z,36.80
2018-04-26T16:21:28.292Z,37.10
2018-04-26T16:24:07.637Z,36.70
2018-04-26T16:26:53.018Z,37.10
2018-04-26T16:29:41.413Z,37.60
2018-04-26T16:32:26.530Z,37.30
2018-04-26T16:35:21.825Z,37.80
2018-04-26T16:38:06.971Z,38.10
2018-04-26T16:40:34.648Z,38.30
2018-04-26T16:43:02.335Z,39.20
2018-04-26T16:45:30.668Z,41.30
2018-04-26T16:47:58.223Z,41.30
2018-04-26T16:50:25.789Z,41.80
2018-04-26T16:52:53.500Z,42.30
2018-04-26T16:55:21.064Z,42.60
2018-04-26T16:57:49.744Z,43.40
2018-04-26T17:00:17.355Z,43.30
2018-04-26T17:02:44.907Z,44.00
2018-04-26T17:05:12.420Z,44.50
2018-04-26T17:07:39.924Z,45.20
2018-04-26T17:10:07.547Z,45.50
2018-04-26T17:12:35.853Z,46.50
2018-04-26T17:15:03.363Z,46.30
2018-04-26T17:17:30.890Z,47.40
2018-04-26T17:19:58.536Z,46.90
2018-04-26T17:22:26.142Z,46.30
2018-04-26T17:24:53.659Z,46.80
2018-04-26T17:27:21.341Z,46.70
2018-04-26T17:32:41.850Z,46.80
2018-04-26T17:35:09.631Z,47.00
2018-04-26T17:37:37.196Z,47.40
2018-04-26T17:40:04.770Z,48.40
2018-04-26T17:42:32.357Z,48.80
2018-04-26T17:44:59.882Z,48.60
2018-04-26T17:47:28.353Z,49.30
2018-04-26T17:49:56.062Z,49.30
2018-04-26T17:52:23.593Z,49.40
2018-04-26T17:54:51.128Z,49.70
2018-04-26T17:57:18.786Z,49.80
2018-04-26T17:59:46.632Z,49.80
2018-04-26T18:02:14.458Z,49.40
2018-04-26T18:04:41.952Z,49.80
2018-04-26T18:07:10.266Z,50.00
2018-04-26T18:09:38.598Z,50.10
2018-04-26T18:12:06.232Z,50.10
2018-04-26T18:14:34.870Z,50.20
2018-04-26T18:17:02.397Z,50.40
2018-04-26T18:19:29.917Z,50.80
2018-04-26T18:21:57.537Z,51.00
2018-04-26T18:24:26.838Z,51.20
2018-04-26T18:26:54.540Z,51.50
2018-04-26T18:29:22.161Z,52.00
2018-04-26T18:31:50.518Z,52.80
2018-04-26T18:34:18.135Z,52.80
2018-04-26T18:36:45.720Z,53.20
2018-04-26T18:39:13.255Z,53.60
2018-04-26T18:41:40.820Z,54.00
2018-04-26T18:44:08.404Z,54.50
2018-04-26T18:46:35.935Z,54.70
2018-04-26T18:49:03.510Z,54.80
2018-04-26T18:51:31.015Z,55.10
2018-04-26T18:53:59.270Z,55.40
2018-04-26T18:56:26.874Z,55.40
2018-04-26T18:58:54.424Z,55.80
2018-04-26T19:01:21.987Z,56.30
2018-04-26T19:03:49.455Z,56.50
2018-04-26T19:06:16.942Z,56.60
2018-04-26T19:08:44.461Z,56.80
2018-04-26T19:11:12.027Z,57.10
2018-04-26T19:13:39.711Z,57.30
2018-04-26T19:16:07.277Z,57.60
2018-04-26T19:18:34.950Z,58.70
2018-04-26T19:21:02.628Z,59.40
2018-04-26T19:23:30.321Z,60.50
2018-04-26T19:25:57.794Z,61.40
2018-04-26T19:28:25.302Z,62.10
2018-04-26T19:30:53.565Z,65.60
2018-04-26T19:33:21.127Z,65.40
2018-04-26T19:35:48.808Z,66.10
2018-04-26T19:38:16.395Z,66.40
2018-04-26T19:40:44.722Z,68.20
2018-04-26T19:43:12.972Z,69.10
2018-04-26T19:45:40.540Z,68.80
2018-04-26T19:48:08.090Z,69.30
2018-04-26T19:50:36.388Z,69.60
2018-04-26T19:53:04.605Z,70.30
2018-04-26T19:55:32.218Z,70.30
2018-04-26T19:57:59.691Z,71.00
2018-04-26T20:00:27.945Z,73.50
2018-04-26T20:02:55.591Z,73.50
2018-04-26T20:05:23.194Z,73.60
2018-04-26T20:07:50.732Z,74.10
2018-04-26T20:10:19.008Z,75.40
2018-04-26T20:12:47.239Z,75.80
2018-04-26T20:15:14.707Z,75.70
2018-04-26T20:17:43.707Z,76.60
2018-04-26T20:20:11.234Z,76.60
2018-04-26T20:22:38.801Z,76.60
2018-04-26T20:25:06.329Z,76.70
2018-04-26T20:27:33.835Z,76.90
2018-04-26T20:30:02.057Z,77.90
2018-04-26T20:32:29.537Z,77.80
2018-04-26T20:37:51.410Z,79.10
2018-04-26T20:40:18.976Z,80.10
2018-04-26T20:42:46.466Z,80.30
2018-04-26T20:45:14.786Z,80.90
2018-04-26T20:47:42.289Z,80.20
2018-04-26T20:50:10.521Z,81.60
2018-04-26T20:52:38.000Z,81.10
2018-04-26T20:55:05.473Z,81.70
2018-04-26T20:57:33.001Z,81.90
2018-04-26T21:00:00.467Z,83.40
2018-04-26T21:02:28.107Z,83.90
2018-04-26T21:04:55.661Z,83.90
2018-04-26T21:07:23.150Z,84.60
2018-04-26T21:09:50.698Z,84.70
2018-04-26T21:12:18.264Z,84.80
2018-04-26T21:14:45.805Z,85.30
2018-04-26T21:17:13.357Z,86.10
2018-04-26T21:19:40.873Z,86.80
2018-04-26T21:22:09.091Z,87.60
2018-04-26T21:24:36.746Z,87.60
2018-04-26T21:27:04.483Z,88.00
2018-04-26T21:29:31.996Z,87.80
2018-04-26T21:31:59.446Z,87.50
2018-04-26T21:34:27.056Z,87.90
2018-04-26T21:36:54.615Z,89.00
2018-04-26T21:39:22.131Z,88.80
2018-04-26T21:41:49.829Z,88.90
2018-04-26T21:44:17.358Z,89.30
2018-04-26T21:46:45.610Z,90.00
2018-04-26T21:49:13.085Z,90.00
2018-04-26T21:51:47.102Z,90.10
2018-04-26T21:54:21.082Z,90.20
2018-04-26T21:56:54.267Z,90.20
2018-04-26T21:59:27.545Z,90.40
2018-04-26T22:02:00.851Z,90.70
2018-04-26T22:04:33.945Z,90.70
2018-04-26T22:07:01.471Z,90.80
2018-04-26T22:09:29.383Z,90.70
2018-04-26T22:11:56.861Z,90.80
2018-04-26T22:14:24.939Z,90.70
2018-04-26T22:16:52.453Z,90.70
2018-04-26T22:19:19.958Z,90.80
2018-04-26T22:21:47.442Z,90.90
2018-04-26T22:24:14.918Z,90.90
2018-04-26T22:26:43.206Z,91.20
2018-04-26T22:29:10.729Z,91.20
2018-04-26T22:31:38.216Z,91.20
2018-04-26T22:34:05.831Z,91.30
2018-04-26T22:36:33.317Z,91.20
2018-04-26T22:39:02.251Z,91.40
2018-04-26T22:41:30.491Z,91.50
2018-04-26T22:43:58.766Z,91.50
2018-04-26T22:46:26.365Z,91.80
2018-04-26T22:48:53.916Z,91.50
2018-04-26T22:51:22.176Z,91.70
2018-04-26T22:53:50.415Z,91.80
2018-04-26T22:56:17.877Z,91.70
2018-04-26T22:58:45.355Z,91.80
2018-04-26T23:01:12.822Z,91.80
2018-04-26T23:03:41.076Z,91.90
2018-04-26T23:06:08.543Z,91.90
2018-04-26T23:08:36.798Z,92.60
2018-04-26T23:11:04.279Z,92.50
2018-04-26T23:13:32.524Z,92.30
2018-04-26T23:15:59.992Z,92.30
2018-04-26T23:18:27.471Z,92.40
2018-04-26T23:20:55.711Z,92.80
2018-04-26T23:23:23.182Z,92.80
2018-04-26T23:25:50.670Z,92.70
2018-04-26T23:28:18.204Z,92.60
2018-04-26T23:30:45.793Z,92.80
2018-04-26T23:33:13.323Z,92.70
2018-04-26T23:35:40.791Z,92.80
2018-04-26T23:38:09.018Z,92.70
2018-04-26T23:40:36.496Z,92.70
2018-04-26T23:43:03.974Z,92.80
2018-04-26T23:45:32.214Z,93.10
2018-04-26T23:47:59.669Z,93.00
2018-04-26T23:50:27.162Z,93.00
2018-04-26T23:52:55.403Z,92.90
2018-04-26T23:55:22.873Z,92.90
2018-04-26T23:57:51.107Z,93.20
